Time;durP1;ratioP1;P1;durP2;ratioP2;P2;SDS_P1;SDS_P2;PMS_P1;PMS_P2;Temp;Humidity;BMP_temperature;BMP_pressure;BME280_temperature;BME280_humidity;BME280_pressure;Samples;Min_cycle;Max_cycle;Signal;HPM_P1;HPM_P2
2023/06/21 00:02:03;;;;;;;5.10;2.83;;;;;;;;;;5023725;28;20033;-69
2023/06/21 00:04:30;;;;;;;5.13;2.75;;;;;;;;;;5021460;28;20037;-65
2023/06/21 00:06:57;;;;;;;6.03;2.97;;;;;;;;;;5023545;28;20073;-66
2023/06/21 00:09:23;;;;;;;5.25;2.80;;;;;;;;;;5003489;28;20044;-70
2023/06/21 00:11:50;;;;;;;4.97;2.45;;;;;;;;;;5003627;28;20084;-66
2023/06/21 00:14:16;;;;;;;4.95;2.42;;;;;;;;;;5002352;28;20049;-66
2023/06/21 00:16:45;;;;;;;5.47;2.42;;;;;;;;;;5019329;28;20061;-67
2023/06/21 00:19:12;;;;;;;5.35;2.35;;;;;;;;;;5021273;28;20045;-66
2023/06/21 00:21:39;;;;;;;4.85;2.20;;;;;;;;;;5020484;28;20060;-67
2023/06/21 00:24:08;;;;;;;8.25;2.40;;;;;;;;;;5022707;28;20052;-66
2023/06/21 00:26:35;;;;;;;3.90;1.95;;;;;;;;;;5021413;28;20449;-67
2023/06/21 00:29:01;;;;;;;7.18;2.50;;;;;;;;;;5022511;28;20578;-66
2023/06/21 00:31:28;;;;;;;6.10;2.17;;;;;;;;;;5020739;28;20570;-67
2023/06/21 00:33:55;;;;;;;4.57;2.20;;;;;;;;;;5019995;28;20455;-67
2023/06/21 00:36:21;;;;;;;4.32;2.22;;;;;;;;;;5019502;28;20061;-68
2023/06/21 00:38:48;;;;;;;4.70;2.10;;;;;;;;;;5022261;28;20045;-67
2023/06/21 00:41:14;;;;;;;5.85;2.83;;;;;;;;;;5022011;28;20396;-67
2023/06/21 00:43:41;;;;;;;4.78;2.30;;;;;;;;;;5002733;28;20072;-65
2023/06/21 00:46:08;;;;;;;5.00;2.25;;;;;;;;;;5020902;28;20514;-67
2023/06/21 00:48:34;;;;;;;4.85;2.80;;;;;;;;;;5004113;28;20897;-67
2023/06/21 00:51:01;;;;;;;4.47;2.08;;;;;;;;;;5022629;28;20048;-66
2023/06/21 00:53:28;;;;;;;4.97;2.45;;;;;;;;;;5021185;28;20041;-67
2023/06/21 00:56:00;;;;;;;8.25;2.70;;;;;;;;;;5021728;28;20128;-67
2023/06/21 00:58:26;;;;;;;7.13;2.45;;;;;;;;;;5019149;28;20041;-66
2023/06/21 01:00:53;;;;;;;5.68;2.60;;;;;;;;;;5020726;28;20289;-66
2023/06/21 01:03:21;;;;;;;6.03;2.40;;;;;;;;;;5021217;28;20042;-68
2023/06/21 01:05:59;;;;;;;4.90;2.20;;;;;;;;;;5020287;28;20066;-67
2023/06/21 01:08:36;;;;;;;5.10;2.38;;;;;;;;;;5021247;28;20065;-67
2023/06/21 01:11:30;;;;;;;4.18;2.10;;;;;;;;;;5021970;28;20072;-67
2023/06/21 01:13:56;;;;;;;5.75;2.83;;;;;;;;;;4999024;28;20524;-67
2023/06/21 01:16:24;;;;;;;5.95;2.72;;;;;;;;;;5008616;28;20382;-67
2023/06/21 01:18:51;;;;;;;5.28;2.60;;;;;;;;;;5020618;28;20112;-66
2023/06/21 01:21:19;;;;;;;3.40;1.55;;;;;;;;;;5022083;28;20049;-66
2023/06/21 01:24:03;;;;;;;5.47;2.80;;;;;;;;;;5019611;28;20198;-68
2023/06/21 01:26:33;;;;;;;5.45;2.60;;;;;;;;;;5020535;28;20048;-67
2023/06/21 01:29:03;;;;;;;4.90;2.17;;;;;;;;;;5019687;28;20543;-66
2023/06/21 01:31:30;;;;;;;5.15;2.50;;;;;;;;;;5019847;28;20037;-69
2023/06/21 01:33:58;;;;;;;5.55;3.05;;;;;;;;;;5010847;28;20041;-69
2023/06/21 01:36:24;;;;;;;4.28;2.30;;;;;;;;;;5021723;28;20029;-69
2023/06/21 01:38:55;;;;;;;5.47;2.47;;;;;;;;;;5004456;28;20033;-68
2023/06/21 01:41:22;;;;;;;5.80;2.63;;;;;;;;;;5021636;28;20053;-68
2023/06/21 01:43:49;;;;;;;9.35;3.42;;;;;;;;;;5020541;28;20041;-69
2023/06/21 01:46:16;;;;;;;5.07;2.70;;;;;;;;;;5022444;28;20080;-66
2023/06/21 01:48:44;;;;;;;5.50;2.42;;;;;;;;;;5021001;28;20045;-67
2023/06/21 01:51:11;;;;;;;5.30;2.65;;;;;;;;;;5022756;28;20120;-66
2023/06/21 01:53:39;;;;;;;4.68;2.78;;;;;;;;;;5020618;28;20052;-67
2023/06/21 01:56:10;;;;;;;11.02;3.25;;;;;;;;;;5020932;28;20041;-67
2023/06/21 01:58:37;;;;;;;6.18;2.88;;;;;;;;;;5018352;28;20045;-68
2023/06/21 02:01:03;;;;;;;5.95;2.90;;;;;;;;;;5019903;28;20045;-67
2023/06/21 02:03:31;;;;;;;5.15;2.85;;;;;;;;;;5019224;28;20081;-68
2023/06/21 02:06:00;;;;;;;6.13;3.15;;;;;;;;;;5018937;28;20041;-71
2023/06/21 02:08:28;;;;;;;4.72;2.45;;;;;;;;;;5018239;28;20048;-69
2023/06/21 02:10:55;;;;;;;6.65;3.00;;;;;;;;;;5019321;28;20044;-67
2023/06/21 02:13:22;;;;;;;6.38;3.17;;;;;;;;;;5018399;28;20049;-66
2023/06/21 02:15:48;;;;;;;4.82;2.65;;;;;;;;;;5018472;28;20045;-67
2023/06/21 02:18:16;;;;;;;4.97;2.50;;;;;;;;;;5020403;28;20091;-67
2023/06/21 02:20:43;;;;;;;6.13;3.08;;;;;;;;;;5017321;28;20037;-68
2023/06/21 02:23:09;;;;;;;6.28;3.30;;;;;;;;;;5016712;28;20041;-68
2023/06/21 02:25:36;;;;;;;6.95;2.95;;;;;;;;;;5014597;28;21651;-66
2023/06/21 02:28:03;;;;;;;4.88;2.90;;;;;;;;;;5016794;28;20448;-67
2023/06/21 02:30:30;;;;;;;5.18;2.72;;;;;;;;;;5016627;28;20041;-66
2023/06/21 02:32:57;;;;;;;6.45;2.92;;;;;;;;;;5003233;28;20050;-65
2023/06/21 02:35:24;;;;;;;6.80;3.08;;;;;;;;;;5003600;28;20426;-65
2023/06/21 02:37:51;;;;;;;6.18;2.88;;;;;;;;;;5002597;28;20056;-67
2023/06/21 02:40:17;;;;;;;4.78;2.70;;;;;;;;;;5003093;28;20495;-67
2023/06/21 02:42:44;;;;;;;5.80;3.00;;;;;;;;;;5003512;28;20045;-67
2023/06/21 02:45:11;;;;;;;7.60;3.40;;;;;;;;;;4985403;28;20045;-66
2023/06/21 02:47:37;;;;;;;6.65;3.13;;;;;;;;;;5004974;28;20435;-67
2023/06/21 02:50:05;;;;;;;5.55;2.72;;;;;;;;;;5003664;28;23024;-66
2023/06/21 02:52:31;;;;;;;8.35;2.85;;;;;;;;;;5003701;28;20160;-66
2023/06/21 02:54:58;;;;;;;6.28;3.08;;;;;;;;;;4987025;28;20061;-65
2023/06/21 02:57:26;;;;;;;7.13;3.53;;;;;;;;;;5003814;28;20042;-66
2023/06/21 02:59:53;;;;;;;6.80;2.97;;;;;;;;;;4987457;28;20489;-68
2023/06/21 03:02:21;;;;;;;7.32;2.92;;;;;;;;;;5004662;28;20060;-66
2023/06/21 03:04:47;;;;;;;5.85;3.22;;;;;;;;;;5001839;28;20073;-66
2023/06/21 03:07:14;;;;;;;6.82;3.10;;;;;;;;;;5006393;28;20034;-65
2023/06/21 03:09:40;;;;;;;5.95;3.05;;;;;;;;;;5005417;28;20033;-67
2023/06/21 03:12:08;;;;;;;6.13;2.97;;;;;;;;;;5009018;28;20042;-66
2023/06/21 03:14:38;;;;;;;6.05;2.97;;;;;;;;;;5007800;28;20160;-65
2023/06/21 03:17:06;;;;;;;6.03;2.95;;;;;;;;;;5008424;28;20042;-66
2023/06/21 03:19:32;;;;;;;5.18;2.70;;;;;;;;;;5007693;28;20699;-64
2023/06/21 03:21:59;;;;;;;6.60;2.63;;;;;;;;;;5007604;28;20034;-67
2023/06/21 03:24:32;;;;;;;4.50;2.33;;;;;;;;;;5006860;28;20041;-66
2023/06/21 03:26:59;;;;;;;7.32;3.00;;;;;;;;;;5008476;28;20537;-65
2023/06/21 03:29:26;;;;;;;6.15;3.05;;;;;;;;;;5008247;28;20030;-66
2023/06/21 03:31:52;;;;;;;6.65;2.70;;;;;;;;;;4998134;28;20061;-66
2023/06/21 03:34:39;;;;;;;6.07;2.88;;;;;;;;;;4977346;28;20141;-66
2023/06/21 03:37:06;;;;;;;5.20;2.67;;;;;;;;;;4969196;28;20041;-66
2023/06/21 03:39:32;;;;;;;9.00;2.90;;;;;;;;;;4982757;28;20173;-66
2023/06/21 03:41:59;;;;;;;5.57;2.63;;;;;;;;;;4986899;28;20854;-66
2023/06/21 03:44:25;;;;;;;4.63;2.70;;;;;;;;;;4985729;28;20179;-66
2023/06/21 03:46:52;;;;;;;5.28;2.88;;;;;;;;;;4989455;28;20069;-64
2023/06/21 03:49:20;;;;;;;5.07;2.78;;;;;;;;;;4990331;28;20498;-66
2023/06/21 03:51:48;;;;;;;5.53;3.03;;;;;;;;;;4975856;28;20049;-67
2023/06/21 03:54:15;;;;;;;5.25;2.97;;;;;;;;;;4988012;28;20050;-67
2023/06/21 03:56:42;;;;;;;5.88;3.10;;;;;;;;;;4968222;28;20154;-68
2023/06/21 03:59:10;;;;;;;5.50;3.10;;;;;;;;;;4955985;28;20488;-65
2023/06/21 04:01:36;;;;;;;6.05;2.97;;;;;;;;;;4939614;28;20053;-65
2023/06/21 04:04:03;;;;;;;5.75;3.17;;;;;;;;;;4956055;28;20235;-67
2023/06/21 04:06:29;;;;;;;7.57;3.20;;;;;;;;;;4956973;28;20069;-65
2023/06/21 04:08:57;;;;;;;6.47;3.10;;;;;;;;;;4957237;28;20130;-66
2023/06/21 04:11:23;;;;;;;5.50;2.63;;;;;;;;;;4960976;28;20046;-66
2023/06/21 04:13:53;;;;;;;5.03;2.90;;;;;;;;;;4976289;28;20050;-64
2023/06/21 04:16:20;;;;;;;6.18;3.10;;;;;;;;;;4971014;28;20034;-65
2023/06/21 04:18:46;;;;;;;5.13;2.47;;;;;;;;;;4976621;28;20066;-66
2023/06/21 04:21:13;;;;;;;6.03;2.85;;;;;;;;;;4970098;28;20046;-67
2023/06/21 04:23:40;;;;;;;5.43;2.78;;;;;;;;;;4974954;28;20203;-66
2023/06/21 04:26:07;;;;;;;6.25;3.13;;;;;;;;;;4970099;28;20157;-69
2023/06/21 04:28:34;;;;;;;5.57;2.72;;;;;;;;;;4973703;28;20129;-66
2023/06/21 04:31:00;;;;;;;5.70;2.85;;;;;;;;;;4966633;28;21976;-68
2023/06/21 04:33:30;;;;;;;5.57;2.83;;;;;;;;;;4974026;28;20503;-66
2023/06/21 04:35:57;;;;;;;5.05;2.90;;;;;;;;;;4979874;28;20399;-67
2023/06/21 04:38:24;;;;;;;6.25;3.20;;;;;;;;;;4998572;28;20148;-67
2023/06/21 04:40:52;;;;;;;5.95;2.90;;;;;;;;;;5002856;28;20041;-68
2023/06/21 04:43:21;;;;;;;7.07;3.00;;;;;;;;;;5021080;28;20050;-67
2023/06/21 04:45:48;;;;;;;6.38;3.15;;;;;;;;;;5020950;28;20069;-68
2023/06/21 04:48:15;;;;;;;5.55;2.90;;;;;;;;;;5021121;28;20056;-67
2023/06/21 04:50:45;;;;;;;6.22;2.90;;;;;;;;;;5020608;28;20360;-67
2023/06/21 04:53:15;;;;;;;6.47;2.97;;;;;;;;;;5020522;28;20072;-67
2023/06/21 04:55:43;;;;;;;8.20;3.20;;;;;;;;;;5019782;28;20121;-68
2023/06/21 04:58:12;;;;;;;6.55;2.78;;;;;;;;;;5021493;28;20594;-68
2023/06/21 05:00:39;;;;;;;5.22;2.67;;;;;;;;;;5002479;28;20156;-68
2023/06/21 05:03:05;;;;;;;5.88;2.65;;;;;;;;;;5020189;28;20033;-70
2023/06/21 05:05:32;;;;;;;5.25;2.38;;;;;;;;;;5020533;28;20044;-67
2023/06/21 05:07:59;;;;;;;5.45;2.60;;;;;;;;;;5021306;28;20037;-66
2023/06/21 05:10:26;;;;;;;4.75;2.63;;;;;;;;;;5011811;28;20037;-66
2023/06/21 05:12:52;;;;;;;6.43;2.67;;;;;;;;;;5020180;28;20116;-66
2023/06/21 05:15:19;;;;;;;4.38;2.17;;;;;;;;;;5002779;28;20029;-66
2023/06/21 05:17:46;;;;;;;5.55;2.83;;;;;;;;;;5021283;28;20040;-67
2023/06/21 05:20:13;;;;;;;5.22;2.78;;;;;;;;;;5020731;28;20063;-68
2023/06/21 05:22:41;;;;;;;4.50;2.38;;;;;;;;;;5020800;28;21891;-68
2023/06/21 05:25:08;;;;;;;5.38;2.83;;;;;;;;;;5019956;28;20130;-68
2023/06/21 05:27:35;;;;;;;6.07;2.15;;;;;;;;;;5020715;28;20100;-68
2023/06/21 05:30:02;;;;;;;4.85;2.45;;;;;;;;;;5020716;28;20049;-65
2023/06/21 05:32:29;;;;;;;4.68;2.40;;;;;;;;;;5019016;28;20045;-67
2023/06/21 05:34:56;;;;;;;4.78;2.20;;;;;;;;;;5019463;28;20115;-68
2023/06/21 05:37:23;;;;;;;6.50;2.42;;;;;;;;;;5010291;28;20192;-68
2023/06/21 05:39:51;;;;;;;5.97;2.78;;;;;;;;;;4995587;28;20038;-68
2023/06/21 05:42:17;;;;;;;4.03;2.38;;;;;;;;;;5017697;28;20541;-68
2023/06/21 05:44:44;;;;;;;5.20;2.50;;;;;;;;;;4999400;28;20387;-68
2023/06/21 05:47:10;;;;;;;5.63;2.47;;;;;;;;;;5035961;28;20036;-69
2023/06/21 05:49:37;;;;;;;6.05;2.35;;;;;;;;;;5002041;28;20037;-68
2023/06/21 05:52:04;;;;;;;4.90;2.58;;;;;;;;;;5021254;28;20038;-67
2023/06/21 05:54:30;;;;;;;5.38;2.00;;;;;;;;;;5001607;28;20061;-68
2023/06/21 05:56:57;;;;;;;5.10;2.20;;;;;;;;;;5017989;28;20088;-68
2023/06/21 05:59:24;;;;;;;4.43;2.17;;;;;;;;;;5018628;28;20049;-67
2023/06/21 06:01:50;;;;;;;5.93;2.72;;;;;;;;;;5013702;28;20052;-68
2023/06/21 06:04:17;;;;;;;6.20;2.70;;;;;;;;;;5019470;28;20033;-67
2023/06/21 06:06:43;;;;;;;4.18;2.40;;;;;;;;;;5013783;28;20059;-68
2023/06/21 06:09:10;;;;;;;5.07;2.80;;;;;;;;;;4996651;28;20103;-68
2023/06/21 06:11:37;;;;;;;5.68;2.40;;;;;;;;;;5000396;28;20471;-69
2023/06/21 06:14:04;;;;;;;5.35;2.53;;;;;;;;;;5011754;28;20120;-67
2023/06/21 06:16:30;;;;;;;4.82;2.28;;;;;;;;;;5012726;28;20742;-68
2023/06/21 06:18:57;;;;;;;5.88;2.45;;;;;;;;;;5023412;28;20535;-68
2023/06/21 06:21:24;;;;;;;7.82;2.78;;;;;;;;;;5022177;28;20041;-67
2023/06/21 06:23:51;;;;;;;4.85;2.35;;;;;;;;;;4996148;28;20051;-68
2023/06/21 06:26:24;;;;;;;5.72;2.90;;;;;;;;;;5022504;28;20382;-67
2023/06/21 06:28:54;;;;;;;4.53;2.50;;;;;;;;;;5020911;28;20038;-68
2023/06/21 06:31:24;;;;;;;5.13;2.47;;;;;;;;;;5020535;28;20099;-71
2023/06/21 06:33:51;;;;;;;4.40;2.38;;;;;;;;;;5021001;28;20042;-68
2023/06/21 06:36:18;;;;;;;7.22;2.42;;;;;;;;;;5003038;28;20318;-66
2023/06/21 06:38:51;;;;;;;4.65;2.50;;;;;;;;;;5001409;28;20061;-66
2023/06/21 06:41:18;;;;;;;5.95;2.45;;;;;;;;;;5020696;28;20046;-68
2023/06/21 06:43:45;;;;;;;5.18;2.67;;;;;;;;;;5020194;28;20044;-66
2023/06/21 06:46:12;;;;;;;6.15;2.78;;;;;;;;;;5007077;28;20474;-67
2023/06/21 06:48:38;;;;;;;5.53;2.75;;;;;;;;;;5005941;28;20551;-67
2023/06/21 06:51:05;;;;;;;5.07;2.50;;;;;;;;;;5025754;28;20102;-66
2023/06/21 06:53:32;;;;;;;6.75;2.60;;;;;;;;;;5022323;28;20060;-67
2023/06/21 06:55:59;;;;;;;4.90;2.53;;;;;;;;;;5026195;28;20037;-66
2023/06/21 06:58:27;;;;;;;5.38;2.75;;;;;;;;;;5024550;28;20558;-66
2023/06/21 07:00:54;;;;;;;6.32;2.90;;;;;;;;;;5008824;28;20047;-66
2023/06/21 07:03:21;;;;;;;4.78;2.60;;;;;;;;;;5026397;28;20045;-67
2023/06/21 07:05:48;;;;;;;5.75;2.65;;;;;;;;;;5003669;28;20865;-65
2023/06/21 07:08:14;;;;;;;5.57;2.65;;;;;;;;;;5006347;28;20040;-66
2023/06/21 07:10:41;;;;;;;4.95;2.38;;;;;;;;;;5024563;28;20041;-66
2023/06/21 07:13:08;;;;;;;5.45;2.80;;;;;;;;;;5004863;28;20132;-65
2023/06/21 07:15:34;;;;;;;6.30;2.85;;;;;;;;;;5021346;28;20038;-66
2023/06/21 07:18:01;;;;;;;5.93;2.80;;;;;;;;;;5024018;28;20597;-68
2023/06/21 07:20:28;;;;;;;6.90;3.22;;;;;;;;;;5022792;28;20045;-67
2023/06/21 07:22:56;;;;;;;6.93;2.97;;;;;;;;;;5022300;28;20390;-71
2023/06/21 07:25:22;;;;;;;5.53;2.75;;;;;;;;;;5024159;28;20041;-67
2023/06/21 07:27:49;;;;;;;6.28;3.00;;;;;;;;;;5023493;28;20037;-68
2023/06/21 07:30:16;;;;;;;6.40;2.80;;;;;;;;;;5023335;28;20052;-66
2023/06/21 07:32:43;;;;;;;5.25;2.65;;;;;;;;;;5022164;28;20057;-67
2023/06/21 07:35:12;;;;;;;5.97;2.67;;;;;;;;;;4998190;28;20583;-66
2023/06/21 07:37:39;;;;;;;5.28;2.83;;;;;;;;;;5007775;28;20112;-67
2023/06/21 07:40:06;;;;;;;5.18;2.67;;;;;;;;;;5001368;28;20431;-65
2023/06/21 07:42:33;;;;;;;5.13;2.85;;;;;;;;;;4995504;28;20076;-68
2023/06/21 07:44:59;;;;;;;5.78;2.90;;;;;;;;;;5003248;28;20060;-66
2023/06/21 07:47:28;;;;;;;5.32;2.70;;;;;;;;;;5014805;28;21668;-67
2023/06/21 07:49:54;;;;;;;6.22;3.13;;;;;;;;;;5005758;28;20069;-67
2023/06/21 07:52:21;;;;;;;6.30;3.40;;;;;;;;;;5021526;28;20033;-67
2023/06/21 07:54:49;;;;;;;5.50;2.75;;;;;;;;;;4994522;28;20050;-68
2023/06/21 07:57:16;;;;;;;7.50;2.63;;;;;;;;;;4990607;28;20030;-67
2023/06/21 07:59:43;;;;;;;7.45;3.15;;;;;;;;;;4993390;28;20067;-66
2023/06/21 08:02:10;;;;;;;5.65;3.20;;;;;;;;;;5011375;28;20069;-67
2023/06/21 08:04:37;;;;;;;5.70;2.67;;;;;;;;;;5000280;28;20041;-67
2023/06/21 08:07:05;;;;;;;4.72;2.45;;;;;;;;;;5019408;28;20041;-67
2023/06/21 08:09:32;;;;;;;5.30;2.80;;;;;;;;;;5019253;28;20761;-67
2023/06/21 08:12:00;;;;;;;5.03;2.42;;;;;;;;;;5023952;28;20045;-67
2023/06/21 08:14:27;;;;;;;6.05;2.90;;;;;;;;;;5003341;28;20490;-67
2023/06/21 08:16:54;;;;;;;5.72;2.83;;;;;;;;;;5022171;28;20147;-67
2023/06/21 08:19:20;;;;;;;4.72;2.63;;;;;;;;;;5004532;28;20099;-67
2023/06/21 08:21:47;;;;;;;4.85;2.65;;;;;;;;;;5017934;28;20401;-66
2023/06/21 08:26:50;;;;;;;5.05;2.65;;;;;;;;;;4940966;23;20516;-66
2023/06/21 08:29:16;;;;;;;5.35;2.63;;;;;;;;;;4971224;28;20596;-66
2023/06/21 08:31:43;;;;;;;6.13;2.80;;;;;;;;;;4973115;28;20599;-66
2023/06/21 08:34:09;;;;;;;6.60;3.40;;;;;;;;;;4973395;28;20082;-65
2023/06/21 08:36:38;;;;;;;6.95;3.40;;;;;;;;;;4970767;28;20080;-64
2023/06/21 08:39:05;;;;;;;5.35;2.90;;;;;;;;;;4973208;28;20050;-64
2023/06/21 08:41:32;;;;;;;7.82;3.25;;;;;;;;;;4972918;28;20046;-65
2023/06/21 08:43:58;;;;;;;6.25;3.17;;;;;;;;;;4972553;28;20235;-65
2023/06/21 08:46:27;;;;;;;6.80;3.45;;;;;;;;;;4976138;28;20422;-65
2023/06/21 08:48:56;;;;;;;8.32;3.20;;;;;;;;;;4974539;28;20579;-64
2023/06/21 08:51:22;;;;;;;6.35;3.40;;;;;;;;;;4971278;28;20130;-65
2023/06/21 08:53:59;;;;;;;6.28;2.95;;;;;;;;;;4972929;28;20050;-65
2023/06/21 08:56:27;;;;;;;6.00;3.00;;;;;;;;;;4971861;28;20445;-66
2023/06/21 08:59:13;;;;;;;6.22;2.90;;;;;;;;;;4969786;28;20846;-66
2023/06/21 09:01:43;;;;;;;8.50;3.17;;;;;;;;;;4972304;28;20046;-65
2023/06/21 09:04:10;;;;;;;5.40;2.80;;;;;;;;;;4973867;28;20038;-65
2023/06/21 09:06:37;;;;;;;6.07;2.83;;;;;;;;;;4962550;28;20053;-65
2023/06/21 09:09:04;;;;;;;8.25;3.00;;;;;;;;;;4959928;28;20127;-65
2023/06/21 09:11:31;;;;;;;5.80;3.00;;;;;;;;;;4958325;28;20053;-65
2023/06/21 09:13:58;;;;;;;5.70;3.05;;;;;;;;;;4957226;28;20134;-65
2023/06/21 09:16:26;;;;;;;5.75;2.95;;;;;;;;;;4956192;28;20085;-65
2023/06/21 09:18:52;;;;;;;6.88;3.08;;;;;;;;;;4956230;28;20038;-65
2023/06/21 09:21:19;;;;;;;5.43;3.13;;;;;;;;;;4957716;28;20034;-68
2023/06/21 09:23:46;;;;;;;5.90;2.95;;;;;;;;;;4956373;28;20233;-65
2023/06/21 09:26:12;;;;;;;8.27;2.72;;;;;;;;;;4955648;28;20449;-64
2023/06/21 09:28:39;;;;;;;5.60;2.88;;;;;;;;;;4957995;28;20071;-65
2023/06/21 09:31:06;;;;;;;4.95;2.55;;;;;;;;;;4957883;28;20039;-64
2023/06/21 09:33:36;;;;;;;7.15;2.83;;;;;;;;;;4955758;28;20063;-65
2023/06/21 09:36:04;;;;;;;7.80;3.03;;;;;;;;;;4963486;28;20034;-65
2023/06/21 09:38:32;;;;;;;6.07;2.95;;;;;;;;;;4971512;28;20066;-65
2023/06/21 09:41:00;;;;;;;6.00;3.00;;;;;;;;;;4973570;28;20039;-65
2023/06/21 09:43:26;;;;;;;6.20;3.33;;;;;;;;;;4971458;28;20048;-65
2023/06/21 09:46:12;;;;;;;5.93;3.20;;;;;;;;;;4971328;28;20042;-65
2023/06/21 09:48:41;;;;;;;7.70;3.50;;;;;;;;;;4969384;28;20603;-65
2023/06/21 09:51:09;;;;;;;6.15;3.10;;;;;;;;;;4968304;28;20057;-66
2023/06/21 09:53:36;;;;;;;9.07;3.75;;;;;;;;;;4968226;28;20050;-66
2023/06/21 09:56:03;;;;;;;6.03;3.40;;;;;;;;;;4970182;28;20053;-65
2023/06/21 09:58:34;;;;;;;6.32;3.30;;;;;;;;;;4975114;28;20105;-65
2023/06/21 10:01:06;;;;;;;6.38;2.83;;;;;;;;;;4973249;28;20139;-66
2023/06/21 10:03:34;;;;;;;6.85;3.50;;;;;;;;;;4972855;28;20039;-65
2023/06/21 10:06:01;;;;;;;7.75;3.30;;;;;;;;;;4971878;28;20039;-66
2023/06/21 10:08:29;;;;;;;7.97;3.60;;;;;;;;;;4970386;28;20085;-65
2023/06/21 10:10:56;;;;;;;6.70;3.50;;;;;;;;;;4973282;28;20057;-66
2023/06/21 10:13:26;;;;;;;7.85;3.72;;;;;;;;;;4969732;28;20137;-67
2023/06/21 10:15:53;;;;;;;6.35;3.42;;;;;;;;;;4971196;28;20059;-67
2023/06/21 10:18:20;;;;;;;7.88;3.58;;;;;;;;;;4973471;28;20508;-68
2023/06/21 10:20:50;;;;;;;7.88;3.65;;;;;;;;;;4973204;28;20497;-67
2023/06/21 10:23:17;;;;;;;7.78;3.72;;;;;;;;;;4973824;28;20573;-68
2023/06/21 10:25:45;;;;;;;6.32;3.70;;;;;;;;;;4973784;28;20416;-66
2023/06/21 10:28:13;;;;;;;8.85;3.97;;;;;;;;;;4970326;28;20071;-67
2023/06/21 10:30:40;;;;;;;7.78;4.07;;;;;;;;;;4971904;28;20042;-67
2023/06/21 10:33:07;;;;;;;8.38;4.25;;;;;;;;;;4972829;28;20038;-64
2023/06/21 10:35:35;;;;;;;7.75;3.95;;;;;;;;;;4971546;28;20042;-66
2023/06/21 10:38:08;;;;;;;9.98;4.28;;;;;;;;;;4973463;28;20060;-65
2023/06/21 10:40:35;;;;;;;10.73;4.43;;;;;;;;;;4970561;28;20149;-67
2023/06/21 10:43:02;;;;;;;6.65;3.75;;;;;;;;;;4969917;28;20050;-68
2023/06/21 10:45:30;;;;;;;7.90;3.67;;;;;;;;;;4968461;28;20042;-67
2023/06/21 10:47:57;;;;;;;6.22;3.80;;;;;;;;;;4956994;28;20046;-66
2023/06/21 10:50:24;;;;;;;6.55;3.67;;;;;;;;;;4967684;28;20125;-67
2023/06/21 10:52:58;;;;;;;5.75;3.35;;;;;;;;;;4969924;28;20071;-67
2023/06/21 10:55:24;;;;;;;6.68;3.50;;;;;;;;;;4971118;28;20050;-67
2023/06/21 10:57:55;;;;;;;9.60;3.83;;;;;;;;;;4959648;28;20125;-66
2023/06/21 11:00:23;;;;;;;6.60;3.47;;;;;;;;;;4970825;28;20054;-65
2023/06/21 11:02:50;;;;;;;8.10;4.38;;;;;;;;;;4952709;28;20241;-65
2023/06/21 11:05:16;;;;;;;10.48;3.67;;;;;;;;;;4968428;28;20049;-65
2023/06/21 11:07:50;;;;;;;8.60;3.63;;;;;;;;;;4967820;28;20046;-65
2023/06/21 11:10:17;;;;;;;6.85;3.88;;;;;;;;;;4969959;28;20047;-65
2023/06/21 11:12:44;;;;;;;6.90;3.72;;;;;;;;;;4971659;28;20407;-66
2023/06/21 11:15:11;;;;;;;7.97;3.88;;;;;;;;;;4970494;28;20654;-65
2023/06/21 11:17:37;;;;;;;7.78;4.00;;;;;;;;;;4970374;28;20092;-66
2023/06/21 11:20:20;;;;;;;6.88;3.53;;;;;;;;;;4974817;28;20038;-66
2023/06/21 11:23:00;;;;;;;8.48;3.75;;;;;;;;;;4971090;28;20490;-65
2023/06/21 11:25:27;;;;;;;9.63;4.75;;;;;;;;;;4969930;28;20122;-65
2023/06/21 11:28:11;;;;;;;8.43;4.30;;;;;;;;;;4972726;28;20832;-65
2023/06/21 11:30:38;;;;;;;7.15;4.38;;;;;;;;;;4973059;28;20044;-65
2023/06/21 11:33:19;;;;;;;8.45;4.22;;;;;;;;;;4978387;28;20142;-64
2023/06/21 11:35:49;;;;;;;7.75;3.80;;;;;;;;;;4976487;28;20093;-64
2023/06/21 11:38:17;;;;;;;10.80;3.90;;;;;;;;;;4977918;28;20051;-65
2023/06/21 11:40:44;;;;;;;10.77;4.32;;;;;;;;;;4974525;28;20042;-64
2023/06/21 11:43:18;;;;;;;8.85;4.03;;;;;;;;;;4973897;28;20592;-66
2023/06/21 11:45:55;;;;;;;9.50;4.18;;;;;;;;;;4972238;28;20051;-65
2023/06/21 11:48:25;;;;;;;10.80;4.72;;;;;;;;;;4972887;28;20054;-65
2023/06/21 11:50:52;;;;;;;8.93;4.43;;;;;;;;;;4975169;28;20041;-66
2023/06/21 11:53:37;;;;;;;8.32;4.43;;;;;;;;;;4976264;28;21776;-66
2023/06/21 11:56:04;;;;;;;7.10;3.90;;;;;;;;;;4974863;28;20051;-65
2023/06/21 11:58:31;;;;;;;7.85;4.05;;;;;;;;;;4977537;28;20047;-65
2023/06/21 12:00:58;;;;;;;9.50;4.28;;;;;;;;;;4972906;28;20044;-65
2023/06/21 12:03:28;;;;;;;10.93;3.80;;;;;;;;;;4971114;28;20070;-65
2023/06/21 12:05:55;;;;;;;8.25;4.38;;;;;;;;;;4974133;28;20494;-66
2023/06/21 12:08:26;;;;;;;8.25;3.55;;;;;;;;;;4976279;28;20037;-66
2023/06/21 12:10:53;;;;;;;8.98;4.15;;;;;;;;;;4977385;28;20156;-68
2023/06/21 12:13:20;;;;;;;10.43;4.75;;;;;;;;;;4974687;28;20058;-66
2023/06/21 12:15:54;;;;;;;7.25;3.80;;;;;;;;;;4973232;28;20046;-67
2023/06/21 12:18:21;;;;;;;7.85;4.28;;;;;;;;;;4976183;28;20046;-66
2023/06/21 12:20:54;;;;;;;8.23;3.97;;;;;;;;;;4972660;28;20049;-65
2023/06/21 12:23:21;;;;;;;10.55;4.57;;;;;;;;;;4974070;28;20034;-66
2023/06/21 12:25:51;;;;;;;8.93;4.40;;;;;;;;;;4973674;28;20106;-65
2023/06/21 12:28:19;;;;;;;6.85;4.15;;;;;;;;;;4973803;28;20146;-65
2023/06/21 12:30:46;;;;;;;13.43;4.35;;;;;;;;;;4973595;28;20080;-66
2023/06/21 12:33:14;;;;;;;8.80;4.53;;;;;;;;;;4972009;28;20061;-64
2023/06/21 12:35:41;;;;;;;9.95;4.15;;;;;;;;;;4973449;28;20042;-65
2023/06/21 12:38:15;;;;;;;9.52;4.43;;;;;;;;;;4972572;28;20456;-66
2023/06/21 12:40:58;;;;;;;7.78;4.55;;;;;;;;;;4971312;28;20046;-64
2023/06/21 12:43:37;;;;;;;8.75;5.28;;;;;;;;;;4971574;28;20065;-65
2023/06/21 12:46:05;;;;;;;9.60;4.82;;;;;;;;;;4972511;28;20050;-64
2023/06/21 12:48:32;;;;;;;8.45;4.90;;;;;;;;;;4970412;28;20510;-67
2023/06/21 12:50:58;;;;;;;10.57;4.88;;;;;;;;;;4971034;28;20130;-68
2023/06/21 12:53:26;;;;;;;7.65;4.25;;;;;;;;;;4972557;28;20054;-68
2023/06/21 12:55:53;;;;;;;11.15;5.20;;;;;;;;;;4971643;28;20795;-68
2023/06/21 12:58:19;;;;;;;10.02;4.88;;;;;;;;;;4973501;28;20733;-67
2023/06/21 13:00:46;;;;;;;9.07;5.32;;;;;;;;;;4955367;28;20069;-67
2023/06/21 13:03:13;;;;;;;8.25;5.03;;;;;;;;;;4971455;28;20045;-66
2023/06/21 13:05:40;;;;;;;8.57;4.63;;;;;;;;;;4975067;28;20050;-67
2023/06/21 13:08:06;;;;;;;7.32;4.20;;;;;;;;;;4974998;28;20042;-70
2023/06/21 13:10:33;;;;;;;7.28;3.97;;;;;;;;;;4972955;28;20490;-68
2023/06/21 13:13:00;;;;;;;7.03;3.95;;;;;;;;;;4963594;28;20036;-67
2023/06/21 13:15:26;;;;;;;5.35;3.35;;;;;;;;;;4970150;28;20049;-65
2023/06/21 13:17:56;;;;;;;6.40;3.83;;;;;;;;;;4971800;28;20777;-67
2023/06/21 13:20:24;;;;;;;6.55;3.55;;;;;;;;;;4970834;28;20037;-66
2023/06/21 13:22:50;;;;;;;9.05;4.18;;;;;;;;;;4972774;28;20149;-66
2023/06/21 13:25:17;;;;;;;7.85;4.22;;;;;;;;;;4973156;28;20038;-67
2023/06/21 13:27:45;;;;;;;7.40;4.05;;;;;;;;;;4970001;28;20502;-68
2023/06/21 13:30:12;;;;;;;6.32;3.40;;;;;;;;;;4969832;28;20301;-67
2023/06/21 13:32:39;;;;;;;5.78;3.55;;;;;;;;;;4970436;28;20065;-66
2023/06/21 13:35:06;;;;;;;7.47;3.95;;;;;;;;;;4972726;28;20057;-66
2023/06/21 13:37:33;;;;;;;5.90;3.50;;;;;;;;;;4971322;28;20041;-66
2023/06/21 13:39:59;;;;;;;6.53;3.75;;;;;;;;;;4972729;28;20034;-66
2023/06/21 13:42:26;;;;;;;5.22;2.80;;;;;;;;;;4968587;28;20049;-66
2023/06/21 13:44:53;;;;;;;5.63;3.40;;;;;;;;;;4973261;28;20418;-65
2023/06/21 13:47:19;;;;;;;6.38;2.85;;;;;;;;;;4970047;28;20038;-65
2023/06/21 13:49:48;;;;;;;6.05;2.50;;;;;;;;;;4970371;28;20053;-65
2023/06/21 13:52:15;;;;;;;5.05;2.58;;;;;;;;;;4970865;28;20053;-66
2023/06/21 13:54:43;;;;;;;4.30;2.03;;;;;;;;;;4970544;28;20050;-66
2023/06/21 13:57:14;;;;;;;4.88;2.13;;;;;;;;;;4972230;28;20092;-66
2023/06/21 13:59:42;;;;;;;6.70;2.05;;;;;;;;;;4971097;28;20067;-67
2023/06/21 14:02:09;;;;;;;5.07;2.13;;;;;;;;;;4955942;28;20035;-65
2023/06/21 14:04:36;;;;;;;5.40;2.08;;;;;;;;;;4969701;28;21042;-66
2023/06/21 14:07:02;;;;;;;4.68;2.00;;;;;;;;;;4970874;28;20046;-64
2023/06/21 14:09:29;;;;;;;5.10;2.00;;;;;;;;;;4970999;28;20046;-65
2023/06/21 14:11:56;;;;;;;3.97;1.80;;;;;;;;;;4972926;28;20081;-67
2023/06/21 14:14:23;;;;;;;5.05;2.08;;;;;;;;;;4969346;28;20165;-66
2023/06/21 14:16:50;;;;;;;6.07;1.88;;;;;;;;;;4970482;28;20035;-66
2023/06/21 14:19:17;;;;;;;4.97;1.90;;;;;;;;;;4972113;28;20059;-66
2023/06/21 14:21:44;;;;;;;4.85;1.90;;;;;;;;;;4969643;28;20474;-65
2023/06/21 14:24:11;;;;;;;4.38;1.80;;;;;;;;;;4969251;28;20487;-65
2023/06/21 14:26:38;;;;;;;4.82;2.10;;;;;;;;;;4969156;28;20400;-64
2023/06/21 14:29:04;;;;;;;4.07;1.75;;;;;;;;;;4971274;28;20089;-65
2023/06/21 14:31:32;;;;;;;5.10;2.00;;;;;;;;;;4970332;28;20402;-65
2023/06/21 14:34:04;;;;;;;4.07;1.50;;;;;;;;;;4973533;28;20284;-65
2023/06/21 14:36:31;;;;;;;4.22;1.90;;;;;;;;;;4970537;28;20561;-65
2023/06/21 14:38:58;;;;;;;5.45;1.73;;;;;;;;;;4975573;28;20045;-64
2023/06/21 14:41:25;;;;;;;5.63;1.83;;;;;;;;;;4970868;28;20046;-64
2023/06/21 14:43:51;;;;;;;3.90;1.67;;;;;;;;;;4971244;28;20045;-66
2023/06/21 14:46:18;;;;;;;5.93;1.60;;;;;;;;;;4971337;28;20496;-66
2023/06/21 14:48:45;;;;;;;5.30;1.65;;;;;;;;;;4969967;28;20057;-65
2023/06/21 14:51:14;;;;;;;5.47;1.85;;;;;;;;;;4972415;28;20073;-65